Briarwood, New York
Current Conditions -  °F | °C
As of 4:51 PM on Friday 24 Oct 2014 (Local Time) from KJFK Reporting Station
Broken Clouds Broken Clouds  
Wind Chill: 61°   Ceiling: 4900
Heat Index: 61°   Visibility: 10mi
Dew Point: 45°   Wind: 8mph
Humidity: 56%   Direction: 20°NNE
Pressure: 29.78"   Gusts: NA
Location:  40.7006°N, 73.8099°W
Report Text: KJFK 242051Z 02007KT 10SM BKN049 BKN250 16/07 A2978 RMK AO2 SLP083 T01610072 55003
Loading
Personal Weather Stations






























Interactive Weather Map
Tropical Storm Tracking
New forecast layout! Learn more

10-Day Weather Forecast

Advertisements
Track Severe Weather on mobile